Météo Nord-Pas-de-Calais   La météo au plus près de chez vous

Station météorologique

Observations météo à Brest-Guipavas (29075)

29075001 92 m Dernier relevé à 17:48
22.5°C
Humidité 41 % Vent 6.5 km/h 1024.3 hPa

Journée consultée

Samedi 5 Septembre 2026

Synthèse de la journée

Périodes de référence en UTC

Température maximale

25°C

à 17:18

06h 06h

Température minimale

11.5°C

à 06:18

18h 18h

Rafale maximale

25 km/h

à 17:36

00h 00h

Précipitations

0 mm

Cumul quotidien

06h 06h

Ensoleillement

6h 53 mins

Durée quotidienne

00h 00h

Graphiques de la journée

Heure locale Réduire

Données détaillées

Relevés météo

Pas de 6 minutes Afficher les relevés infra-horaires
Relevés météo détaillés à Brest-Guipavas pour le Samedi 5 Septembre 2026
Heure Température °C Point de rosée °C Humidité % Vent moyen (raf.), km/h Précipitations mm Température à 10 cm °C Température à 20 cm °C Température à 50 cm °C Température à 100 cm °C Visibilité m État du sol   Ensoleillement min Rayonnement global W/m² Pression hPa Nébulosité Octas
17:48 22.5 °C 13.6 °C 57 % 15 km/h (22 km/h) 0 mm0 mm 19.2 °C 19.1 °C 18.9 °C 18.4 °C 60000 m 0   6 min 122 W/m² 1024.1 hPa
17:42 22.9 °C 13.1 °C 54 % 16 km/h (22 km/h) 0 mm0 mm 19.2 °C 19.1 °C 18.9 °C 18.4 °C 60000 m 0   6 min 177.2 W/m² 1024.2 hPa
17:36 23.3 °C 13.2 °C 53 % 16 km/h (25 km/h) 0 mm0 mm 19.2 °C 19.1 °C 19 °C 18.4 °C 19950 m 0   6 min 192.8 W/m² 1024.3 hPa
17:30 23.5 °C 13.4 °C 53 % 10 km/h (21 km/h) 0 mm0 mm 19.2 °C 19.1 °C 19 °C 18.4 °C 60000 m 0   6 min 198.7 W/m² 1024.3 hPa
17:24 24.2 °C 13.1 °C 50 % 7 km/h (12 km/h) 0 mm0 mm 19.1 °C 19 °C 18.9 °C 18.4 °C 60000 m 0   6 min 200.2 W/m² 1024.4 hPa
17:18 25 °C 12.9 °C 47 % 7 km/h (15 km/h) 0 mm0 mm 19.1 °C 19.1 °C 18.9 °C 18.4 °C 60000 m 0   6 min 206.9 W/m² 1024.4 hPa
17:12 24.7 °C 10.6 °C 41 % 7 km/h (15 km/h) 0 mm0 mm 19.1 °C 19 °C 19 °C 18.4 °C 60000 m 0   6 min 222.3 W/m² 1024.4 hPa
17:06 24.5 °C 11.1 °C 43 % 6 km/h (12 km/h) 0 mm0 mm 19.1 °C 19.1 °C 18.9 °C 18.4 °C 35520 m 0   6 min 238.5 W/m² 1024.5 hPa
17:00 24.1 °C 11.1 °C 44 % 7 km/h (14 km/h) 0 mm0 mm 19.1 °C 19.1 °C 19 °C 18.4 °C 48460 m 0   6 min 221.9 W/m² 1024.4 hPa 7 Octas
16:54 23.7 °C 10.4 °C 43 % 7 km/h (14 km/h) 0 mm0 mm 19.1 °C 19.1 °C 18.9 °C 18.4 °C 47200 m 0   6 min 241.2 W/m² 1024.4 hPa
16:48 23.6 °C 9.6 °C 41 % 6 km/h (11 km/h) 0 mm0 mm 19 °C 19.1 °C 19 °C 18.4 °C 46760 m 0   6 min 202 W/m² 1024.3 hPa
16:42 23.7 °C 8.9 °C 39 % 7 km/h (11 km/h) 0 mm0 mm 19 °C 19.1 °C 19 °C 18.4 °C 48120 m 0   6 min 176.5 W/m² 1024.4 hPa
16:36 24.4 °C 10.3 °C 41 % 6 km/h (10 km/h) 0 mm0 mm 19 °C 19 °C 19.1 °C 18.4 °C 60000 m 0   6 min 221.1 W/m² 1024.6 hPa
16:30 23.8 °C 10.1 °C 42 % 6 km/h (9 km/h) 0 mm0 mm 19 °C 19.1 °C 19 °C 18.4 °C 59780 m 0   5 min 184.2 W/m² 1024.6 hPa
16:24 23.3 °C 9.7 °C 42 % 6 km/h (12 km/h) 0 mm0 mm 19 °C 19.1 °C 19 °C 18.4 °C 59780 m 0   0 min 120 W/m² 1024.7 hPa
16:18 23.1 °C 9.8 °C 43 % 8 km/h (13 km/h) 0 mm0 mm 19 °C 19 °C 19 °C 18.4 °C 60000 m 0   0 min 107 W/m² 1024.8 hPa
16:12 23.7 °C 10 °C 42 % 9 km/h (14 km/h) 0 mm0 mm 19 °C 19.1 °C 18.9 °C 18.4 °C 60000 m 0   2 min 122.8 W/m² 1025 hPa
16:06 24.1 °C 10.7 °C 43 % 7 km/h (14 km/h) 0 mm0 mm 18.9 °C 19.1 °C 19 °C 18.4 °C 60000 m 0   6 min 184 W/m² 1025 hPa
16:00 24.4 °C 11.4 °C 44 % 6 km/h (12 km/h) 0 mm0 mm 18.9 °C 19 °C 18.9 °C 18.4 °C 60000 m 0   6 min 255.9 W/m² 1025 hPa
15:54 24.2 °C 11.5 °C 45 % 6 km/h (12 km/h) 0 mm0 mm 18.9 °C 19.1 °C 19 °C 18.4 °C 60000 m 0   6 min 251.2 W/m² 1025.1 hPa
15:48 23.6 °C 11 °C 45 % 7 km/h (15 km/h) 0 mm0 mm 18.9 °C 19 °C 18.8 °C 18.4 °C 60000 m 0   6 min 217 W/m² 1025.2 hPa
15:42 23.6 °C 10.3 °C 43 % 9 km/h (15 km/h) 0 mm0 mm 18.9 °C 19.1 °C 19 °C 18.4 °C 58730 m 0   6 min 192.9 W/m² 1025.1 hPa
15:36 24.3 °C 11.9 °C 46 % 7 km/h (13 km/h) 0 mm0 mm 18.9 °C 19 °C 18.9 °C 18.4 °C 58730 m 0   6 min 257 W/m² 1025.2 hPa
15:30 23.5 °C 11.2 °C 46 % 6 km/h (11 km/h) 0 mm0 mm 18.8 °C 19 °C 18.9 °C 18.4 °C 60000 m 0   6 min 274.1 W/m² 1025.2 hPa
15:24 23.4 °C 12.1 °C 49 % 8 km/h (15 km/h) 0 mm0 mm 18.9 °C 19.1 °C 18.9 °C 18.4 °C 60000 m 0   6 min 281.3 W/m² 1025.4 hPa
15:18 23.4 °C 11.8 °C 48 % 6 km/h (14 km/h) 0 mm0 mm 18.8 °C 19.1 °C 18.9 °C 18.4 °C 60000 m 0   6 min 263.2 W/m² 1025.5 hPa
15:12 22.9 °C 10.7 °C 46 % 6 km/h (12 km/h) 0 mm0 mm 18.8 °C 19 °C 19 °C 18.4 °C 19700 m 0   6 min 276.6 W/m² 1025.7 hPa
15:06 22.9 °C 10.7 °C 46 % 9 km/h (17 km/h) 0 mm0 mm 18.9 °C 19.1 °C 19.1 °C 18.4 °C 60000 m 0   6 min 265.8 W/m² 1025.7 hPa
15:00 23.6 °C 12.6 °C 50 % 6 km/h (17 km/h) 0 mm0 mm 18.8 °C 19.1 °C 19 °C 18.4 °C 60000 m 0   6 min 261 W/m² 1025.6 hPa
14:54 23.1 °C 11.5 °C 48 % 5 km/h (14 km/h) 0 mm0 mm 18.8 °C 19.1 °C 19 °C 18.4 °C 60000 m 0   6 min 267.2 W/m² 1025.7 hPa
14:48 23.6 °C 11.6 °C 47 % 5 km/h (14 km/h) 0 mm0 mm 18.8 °C 19.1 °C 18.9 °C 18.5 °C 60000 m 0   6 min 260.8 W/m² 1025.7 hPa
14:42 23.2 °C 12.5 °C 51 % 7 km/h (15 km/h) 0 mm0 mm 18.8 °C 19.1 °C 18.9 °C 18.4 °C 60000 m 0   6 min 269.3 W/m² 1025.8 hPa
14:36 22.6 °C 11.9 °C 51 % 9 km/h (15 km/h) 0 mm0 mm 18.8 °C 19.1 °C 18.8 °C 18.4 °C 60000 m 0   6 min 271.2 W/m² 1025.9 hPa
14:30 22.9 °C 11.9 °C 50 % 9 km/h (21 km/h) 0 mm0 mm 18.8 °C 19.1 °C 19 °C 18.4 °C 60000 m 0   6 min 271.5 W/m² 1025.9 hPa
14:24 22.6 °C 11 °C 48 % 7 km/h (13 km/h) 0 mm0 mm 18.8 °C 19 °C 18.9 °C 18.4 °C 17800 m 0   6 min 271.5 W/m² 1025.9 hPa
14:18 22.9 °C 11.6 °C 49 % 9 km/h (17 km/h) 0 mm0 mm 18.8 °C 19 °C 18.9 °C 18.4 °C 17800 m 0   6 min 268.3 W/m² 1025.9 hPa
14:12 22.9 °C 10.7 °C 46 % 6 km/h (17 km/h) 0 mm0 mm 18.8 °C 19.1 °C 18.9 °C 18.4 °C 42660 m 0   6 min 264.7 W/m² 1025.9 hPa
14:06 22.4 °C 10.5 °C 47 % 7 km/h (16 km/h) 0 mm0 mm 18.8 °C 19.1 °C 19 °C 18.4 °C 60000 m 0   6 min 266.8 W/m² 1025.9 hPa
14:00 22 °C 11.4 °C 51 % 7 km/h (16 km/h) 0 mm0 mm 18.8 °C 19.1 °C 18.8 °C 18.4 °C 60000 m 0   6 min 269.7 W/m² 1025.9 hPa
13:54 22.2 °C 11.6 °C 51 % 7 km/h (12 km/h) 0 mm0 mm 18.8 °C 19.1 °C 19 °C 18.4 °C 59690 m 0   6 min 268.1 W/m² 1025.9 hPa
13:48 22.6 °C 13.1 °C 55 % 7 km/h (12 km/h) 0 mm0 mm 18.8 °C 19.1 °C 19 °C 18.4 °C 29640 m 0   6 min 265.9 W/m² 1025.9 hPa
13:42 22.1 °C 13.2 °C 57 % 10 km/h (19 km/h) 0 mm0 mm 18.8 °C 19.1 °C 19 °C 18.4 °C 29650 m 0   6 min 264.3 W/m² 1025.9 hPa
13:36 21.6 °C 12.7 °C 57 % 9 km/h (19 km/h) 0 mm0 mm 18.8 °C 19.1 °C 18.9 °C 18.4 °C 59730 m 0   6 min 262.3 W/m² 1025.9 hPa
13:30 21.7 °C 13.3 °C 59 % 5 km/h (14 km/h) 0 mm0 mm 18.8 °C 19.1 °C 19 °C 18.4 °C 59270 m 0   6 min 263.7 W/m² 1025.9 hPa
13:24 21 °C 12.4 °C 58 % 6 km/h (14 km/h) 0 mm0 mm 18.8 °C 19.1 °C 19 °C 18.4 °C 60000 m 0   6 min 262.5 W/m² 1026 hPa
13:18 21.1 °C 11.7 °C 55 % 6 km/h (13 km/h) 0 mm0 mm 18.8 °C 19.1 °C 19 °C 18.4 °C 60000 m 0   6 min 261.2 W/m² 1026.1 hPa
13:12 21.3 °C 13.2 °C 60 % 6 km/h (13 km/h) 0 mm0 mm 18.8 °C 19.1 °C 19.1 °C 18.4 °C 60000 m 0   6 min 253.6 W/m² 1026.1 hPa
13:06 21.4 °C 12.5 °C 57 % 8 km/h (14 km/h) 0 mm0 mm 18.8 °C 19.1 °C 18.9 °C 18.4 °C 60000 m 0   6 min 257.5 W/m² 1026.2 hPa
13:00 21.3 °C 12.2 °C 56 % 9 km/h (17 km/h) 0 mm0 mm 18.8 °C 19.1 °C 19 °C 18.4 °C 42200 m 0   6 min 257.9 W/m² 1026.2 hPa
12:54 21.3 °C 13.2 °C 60 % 8 km/h (15 km/h) 0 mm0 mm 18.8 °C 19.1 °C 18.9 °C 18.4 °C 42200 m 0   6 min 265 W/m² 1026.3 hPa
12:48 21.3 °C 13 °C 59 % 9 km/h (14 km/h) 0 mm0 mm 18.8 °C 19.1 °C 19 °C 18.4 °C 60000 m 0   6 min 261.6 W/m² 1026.5 hPa
12:42 21 °C 13.2 °C 61 % 9 km/h (16 km/h) 0 mm0 mm 18.8 °C 19.1 °C 19 °C 18.4 °C 60000 m 0   6 min 251.2 W/m² 1026.5 hPa
12:36 20.6 °C 12.8 °C 61 % 7 km/h (14 km/h) 0 mm0 mm 18.8 °C 19.1 °C 19 °C 18.4 °C 60000 m 0   6 min 243.2 W/m² 1026.5 hPa
12:30 20.3 °C 11.8 °C 58 % 6 km/h (10 km/h) 0 mm0 mm 18.8 °C 19.1 °C 19 °C 18.4 °C 60000 m 0   6 min 243.5 W/m² 1026.5 hPa
12:24 20.4 °C 12.1 °C 59 % 8 km/h (14 km/h) 0 mm0 mm 18.8 °C 19.2 °C 19 °C 18.4 °C 58860 m 0   6 min 239.9 W/m² 1026.6 hPa
12:18 20.3 °C 13 °C 63 % 9 km/h (14 km/h) 0 mm0 mm 18.8 °C 19.1 °C 18.9 °C 18.4 °C 59090 m 0   6 min 238 W/m² 1026.6 hPa
12:12 19.7 °C 12.2 °C 62 % 9 km/h (14 km/h) 0 mm0 mm 18.8 °C 19.2 °C 19 °C 18.5 °C 59590 m 0   6 min 239 W/m² 1026.6 hPa
12:06 19.8 °C 12.1 °C 61 % 8 km/h (15 km/h) 0 mm0 mm 18.8 °C 19.1 °C 18.9 °C 18.4 °C 59930 m 0   6 min 190.3 W/m² 1026.5 hPa
12:00 19.6 °C 12.6 °C 64 % 7 km/h (14 km/h) 0 mm0 mm 18.8 °C 19.1 °C 18.9 °C 18.4 °C 59910 m 0   6 min 234.9 W/m² 1026.5 hPa
11:54 19.7 °C 12.5 °C 63 % 8 km/h (21 km/h) 0 mm0 mm 18.9 °C 19.2 °C 18.9 °C 18.4 °C 19810 m 0   6 min 228.2 W/m² 1026.4 hPa
11:48 19.7 °C 12.9 °C 65 % 8 km/h (13 km/h) 0 mm0 mm 18.8 °C 19.2 °C 19 °C 18.4 °C 60000 m 0   6 min 225.9 W/m² 1026.3 hPa
11:42 19.7 °C 13.4 °C 67 % 10 km/h (16 km/h) 0 mm0 mm 18.8 °C 19.2 °C 18.9 °C 18.4 °C 59250 m 0   6 min 225.7 W/m² 1026.3 hPa
11:36 19.3 °C 12.8 °C 66 % 11 km/h (16 km/h) 0 mm0 mm 18.9 °C 19.2 °C 18.9 °C 18.4 °C 19640 m 0   6 min 221.3 W/m² 1026.3 hPa
11:30 19.2 °C 12.7 °C 66 % 10 km/h (15 km/h) 0 mm0 mm 18.9 °C 19.2 °C 19 °C 18.4 °C 19640 m 0   6 min 216.5 W/m² 1026.3 hPa
11:24 19.2 °C 13.6 °C 70 % 10 km/h (14 km/h) 0 mm0 mm 18.9 °C 19.2 °C 18.9 °C 18.4 °C 54180 m 0   6 min 206.2 W/m² 1026.3 hPa
11:18 18.4 °C 12.8 °C 70 % 9 km/h (14 km/h) 0 mm0 mm 18.9 °C 19.2 °C 19 °C 18.4 °C 54180 m 0   6 min 146.9 W/m² 1026.2 hPa
11:12 18.3 °C 12.7 °C 70 % 9 km/h (16 km/h) 0 mm0 mm 18.9 °C 19.2 °C 18.9 °C 18.4 °C 59770 m 0   6 min 118.2 W/m² 1026.2 hPa
11:06 18.2 °C 12.2 °C 68 % 9 km/h (16 km/h) 0 mm0 mm 18.9 °C 19.2 °C 18.9 °C 18.5 °C 59850 m 0   3 min 79.4 W/m² 1026.2 hPa
11:00 19 °C 14.5 °C 75 % 8 km/h (12 km/h) 0 mm0 mm 18.9 °C 19.2 °C 19 °C 18.4 °C 19540 m 0   6 min 192.7 W/m² 1026.2 hPa
10:54 18.5 °C 13.6 °C 73 % 8 km/h (12 km/h) 0 mm0 mm 18.9 °C 19.2 °C 18.9 °C 18.4 °C 19400 m 0   6 min 193.8 W/m² 1026.1 hPa
10:48 18.2 °C 13.9 °C 76 % 8 km/h (12 km/h) 0 mm0 mm 18.9 °C 19.2 °C 19 °C 18.4 °C 19800 m 0   6 min 179.2 W/m² 1026 hPa
10:42 17.6 °C 13.9 °C 79 % 7 km/h (11 km/h) 0 mm0 mm 18.9 °C 19.2 °C 18.9 °C 18.4 °C 52080 m 0   5 min 123.9 W/m² 1026.1 hPa
10:36 17.3 °C 13.4 °C 78 % 7 km/h (11 km/h) 0 mm0 mm 18.9 °C 19.2 °C 18.9 °C 18.4 °C 52730 m 0   0 min 79.7 W/m² 1026 hPa
10:30 16.8 °C 12.7 °C 77 % 5 km/h (10 km/h) 0 mm0 mm 18.9 °C 19.2 °C 19.1 °C 18.4 °C 50390 m 0   0 min 77.5 W/m² 1026.1 hPa
10:24 16.3 °C 12.5 °C 78 % 6 km/h (9 km/h) 0 mm0 mm 18.9 °C 19.2 °C 19 °C 18.4 °C 47210 m 0   0 min 74.4 W/m² 1026 hPa
10:18 16.2 °C 12.6 °C 79 % 5 km/h (8 km/h) 0 mm0 mm 19 °C 19.2 °C 19 °C 18.4 °C 45110 m 0   0 min 82.9 W/m² 1026.1 hPa
10:12 16.3 °C 13.6 °C 84 % 4 km/h (7 km/h) 0 mm0 mm 19 °C 19.2 °C 18.8 °C 18.4 °C 19920 m 0   0 min 98.5 W/m² 1026 hPa
10:06 15.8 °C 13.3 °C 85 % 5 km/h (8 km/h) 0 mm0 mm 19 °C 19.2 °C 18.9 °C 18.4 °C 19530 m 0   0 min 87.1 W/m² 1026 hPa
10:00 15.6 °C 13.6 °C 88 % 4 km/h (8 km/h) 0 mm0 mm 19 °C 19.2 °C 18.9 °C 18.4 °C 19660 m 0   2 min 93.6 W/m² 1026 hPa 8 Octas
09:54 15.4 °C 14.1 °C 92 % 5 km/h (7 km/h) 0 mm0 mm 19 °C 19.3 °C 19.1 °C 18.4 °C 19900 m 0   0 min 79.4 W/m² 1025.8 hPa
09:48 15.2 °C 14.4 °C 95 % 5 km/h (6 km/h) 0 mm0 mm 19 °C 19.3 °C 18.9 °C 18.4 °C 19420 m 0   0 min 71.1 W/m² 1025.7 hPa
09:42 15.2 °C 14.9 °C 98 % 5 km/h (6 km/h) 0 mm0 mm 19 °C 19.3 °C 18.8 °C 18.4 °C 19940 m 0   0 min 58.8 W/m² 1025.7 hPa
09:36 15.2 °C 15 °C 99 % 4 km/h (6 km/h) 0 mm0 mm 19 °C 19.3 °C 19 °C 18.4 °C 19940 m 0   0 min 53.6 W/m² 1025.6 hPa
09:30 15.2 °C 15 °C 99 % 3 km/h (5 km/h) 0 mm0 mm 19 °C 19.3 °C 19 °C 18.4 °C 19900 m 0   0 min 58.7 W/m² 1025.5 hPa
09:24 15 °C 15 °C 100 % 3 km/h (5 km/h) 0 mm0 mm 19 °C 19.3 °C 19 °C 18.5 °C 19890 m 0   0 min 51.5 W/m² 1025.6 hPa
09:18 14.8 °C 14.8 °C 100 % 4 km/h (5 km/h) 0 mm0 mm 19 °C 19.3 °C 18.9 °C 18.4 °C 19840 m 0   0 min 41.5 W/m² 1025.6 hPa
09:12 14.7 °C 14.7 °C 100 % 3 km/h (5 km/h) 0 mm0 mm 19.1 °C 19.3 °C 19 °C 18.4 °C 19600 m 0   0 min 37.1 W/m² 1025.6 hPa
09:06 14.5 °C 14.5 °C 100 % 4 km/h (6 km/h) 0 mm0 mm 19.1 °C 19.3 °C 19 °C 18.4 °C 18290 m 0   0 min 30.8 W/m² 1025.6 hPa
09:00 14.3 °C 14.3 °C 100 % 4 km/h (5 km/h) 0 mm0 mm 19.1 °C 19.3 °C 19 °C 18.4 °C 17570 m 0   0 min 29 W/m² 1025.6 hPa 8 Octas
08:54 14.2 °C 14.2 °C 100 % 4 km/h (5 km/h) 0 mm0 mm 19.1 °C 19.3 °C 19 °C 18.5 °C 16950 m 0   0 min 26.6 W/m² 1025.6 hPa
08:48 14 °C 14 °C 100 % 5 km/h (6 km/h) 0 mm0 mm 19.1 °C 19.3 °C 19 °C 18.5 °C 17190 m 0   0 min 21.5 W/m² 1025.6 hPa
08:42 13.8 °C 13.8 °C 100 % 5 km/h (6 km/h) 0 mm0 mm 19.1 °C 19.3 °C 18.9 °C 18.4 °C 19200 m 0   0 min 17.9 W/m² 1025.5 hPa
08:36 13.5 °C 13.5 °C 100 % 4 km/h (5 km/h) 0 mm0 mm 19.1 °C 19.3 °C 19 °C 18.5 °C 19860 m 0   0 min 15 W/m² 1025.5 hPa
08:30 13.3 °C 13.3 °C 100 % 4 km/h (4 km/h) 0 mm0 mm 19.1 °C 19.3 °C 18.8 °C 18.4 °C 29540 m 0   0 min 14.4 W/m² 1025.6 hPa
08:24 13.1 °C 13.1 °C 100 % 4 km/h (6 km/h) 0 mm0 mm 19.1 °C 19.3 °C 18.9 °C 18.4 °C 28950 m 0   0 min 12.8 W/m² 1025.6 hPa
08:18 13 °C 13 °C 100 % 5 km/h (6 km/h) 0 mm0 mm 19.2 °C 19.3 °C 19 °C 18.4 °C 26860 m 0   0 min 9.6 W/m² 1025.6 hPa
08:12 12.9 °C 12.9 °C 100 % 5 km/h (5 km/h) 0 mm0 mm 19.2 °C 19.4 °C 19 °C 18.5 °C 27050 m 0   0 min 2.6 W/m² 1025.6 hPa
08:06 12.9 °C 12.9 °C 100 % 4 km/h (5 km/h) 0 mm0 mm 19.2 °C 19.3 °C 18.9 °C 18.4 °C 19860 m 0   0 min 0 W/m² 1025.6 hPa
08:00 12.9 °C 12.9 °C 100 % 3 km/h (4 km/h) 0 mm0 mm 19.2 °C 19.3 °C 19 °C 18.4 °C 19560 m 0   0 min 0 W/m² 1025.6 hPa 8 Octas
07:54 12.7 °C 12.7 °C 100 % 0 km/h (3 km/h) 0 mm0 mm 19.2 °C 19.4 °C 18.9 °C 18.5 °C 14460 m 0   0 min 0 W/m² 1025.6 hPa
07:48 12.4 °C 12.4 °C 100 % 2 km/h (3 km/h) 0 mm0 mm 19.2 °C 19.4 °C 18.9 °C 18.4 °C 13960 m 0   0 min 0 W/m² 1025.6 hPa
07:42 12.5 °C 12.5 °C 100 % 2 km/h (3 km/h) 0 mm0 mm 19.2 °C 19.4 °C 18.9 °C 18.4 °C 15150 m 0   0 min 0 W/m² 1025.5 hPa
07:36 12.4 °C 12.4 °C 100 % 2 km/h (2 km/h) 0 mm0 mm 19.2 °C 19.3 °C 18.9 °C 18.4 °C 14640 m 0   0 min 0 W/m² 1025.4 hPa
07:30 12.1 °C 12.1 °C 100 % 3 km/h (4 km/h) 0 mm0 mm 19.2 °C 19.4 °C 19 °C 18.5 °C 14330 m 0   0 min 0 W/m² 1025.4 hPa
07:24 12 °C 12 °C 100 % 3 km/h (4 km/h) 0 mm0 mm 19.2 °C 19.3 °C 18.9 °C 18.4 °C 6300 m 0   0 min 0 W/m² 1025.4 hPa
07:18 11.9 °C 11.7 °C 99 % 3 km/h (4 km/h) 0 mm0 mm 19.2 °C 19.3 °C 19 °C 18.4 °C 1580 m 0   0 min 0 W/m² 1025.4 hPa
07:12 11.9 °C 11.9 °C 100 % 0 km/h (3 km/h) 0 mm0 mm 19.3 °C 19.3 °C 18.9 °C 18.4 °C 780 m 0   0 min 0 W/m² 1025.3 hPa
07:06 11.6 °C 11.4 °C 99 % 2 km/h (3 km/h) 0 mm0 mm 19.3 °C 19.4 °C 19 °C 18.4 °C 1210 m 0   0 min 0 W/m² 1025.2 hPa
07:00 11.5 °C 11.3 °C 99 % 3 km/h (3 km/h) 0 mm0 mm 19.2 °C 19.4 °C 18.9 °C 18.4 °C 3370 m 0   0 min 0 W/m² 1025.3 hPa 8 Octas
06:54 11.7 °C 11.5 °C 99 % 3 km/h (4 km/h) 0 mm0 mm 19.3 °C 19.4 °C 18.9 °C 18.4 °C 5650 m 0   0 min 0 W/m² 1025.2 hPa
06:48 11.6 °C 11.4 °C 99 % 4 km/h (5 km/h) 0 mm0 mm 19.3 °C 19.4 °C 18.9 °C 18.5 °C 5120 m 0   0 min 0 W/m² 1025.1 hPa
06:42 11.8 °C 11.6 °C 99 % 4 km/h (5 km/h) 0 mm0 mm 19.3 °C 19.4 °C 18.9 °C 18.4 °C 9290 m 0   0 min 0 W/m² 1025.2 hPa
06:36 12.2 °C 12 °C 99 % 4 km/h (5 km/h) 0 mm0 mm 19.3 °C 19.4 °C 18.9 °C 18.4 °C 4270 m 0   0 min 0 W/m² 1025.2 hPa
06:30 12.4 °C 12.4 °C 100 % 5 km/h (5 km/h) 0 mm0 mm 19.4 °C 19.4 °C 19 °C 18.4 °C 1230 m 0   0 min 0 W/m² 1025.1 hPa
06:24 11.9 °C 11.7 °C 99 % 4 km/h (5 km/h) 0 mm0 mm 19.3 °C 19.4 °C 18.9 °C 18.5 °C 480 m 0   0 min 0 W/m² 1025.1 hPa
06:18 11.5 °C 11.2 °C 98 % 4 km/h (5 km/h) 0 mm0 mm 19.3 °C 19.4 °C 19 °C 18.4 °C 510 m 0   0 min 0 W/m² 1025.1 hPa
06:12 12.1 °C 11.9 °C 99 % 4 km/h (4 km/h) 0 mm0 mm 19.3 °C 19.4 °C 18.9 °C 18.4 °C 650 m 0   0 min 0 W/m² 1025.2 hPa
06:06 12.3 °C 12.1 °C 99 % 4 km/h (4 km/h) 0 mm0 mm 19.3 °C 19.4 °C 19 °C 18.5 °C 810 m 0   0 min 0 W/m² 1025.1 hPa
06:00 12.5 °C 12.5 °C 100 % 3 km/h (4 km/h) 0 mm0.2 mm 19.3 °C 19.4 °C 19 °C 18.4 °C 670 m 0   0 min 0 W/m² 1025 hPa 6 Octas
05:54 12.1 °C 11.9 °C 99 % 4 km/h (4 km/h) 0 mm0 mm 19.4 °C 19.4 °C 18.9 °C 18.4 °C 500 m 0   0 min 0 W/m² 1025 hPa
05:48 11.9 °C 11.6 °C 98 % 4 km/h (4 km/h) 0 mm0 mm 19.4 °C 19.4 °C 18.9 °C 18.4 °C 450 m 0   0 min 0 W/m² 1025 hPa
05:42 12 °C 11.7 °C 98 % 3 km/h (4 km/h) 0 mm0 mm 19.4 °C 19.4 °C 18.9 °C 18.5 °C 830 m 0   0 min 0 W/m² 1024.9 hPa
05:36 12.7 °C 12.5 °C 99 % 4 km/h (4 km/h) 0.2 mm0 mm 19.4 °C 19.5 °C 19 °C 18.5 °C 1140 m 0   0 min 0 W/m² 1024.8 hPa
05:30 13 °C 12.8 °C 99 % 4 km/h (4 km/h) 0 mm0 mm 19.4 °C 19.4 °C 19 °C 18.5 °C 1380 m 0   0 min 0 W/m² 1024.8 hPa
05:24 13 °C 12.8 °C 99 % 3 km/h (3 km/h) 0 mm0 mm 19.4 °C 19.4 °C 18.9 °C 18.4 °C 1410 m 0   0 min 0 W/m² 1024.7 hPa
05:18 13 °C 12.8 °C 99 % 3 km/h (4 km/h) 0 mm0 mm 19.4 °C 19.5 °C 19 °C 18.5 °C 1860 m 0   0 min 0 W/m² 1024.7 hPa
05:12 13 °C 12.8 °C 99 % 4 km/h (4 km/h) 0 mm0 mm 19.5 °C 19.4 °C 18.9 °C 18.5 °C 3910 m 0   0 min 0 W/m² 1024.7 hPa
05:06 12.6 °C 12.3 °C 98 % 4 km/h (4 km/h) 0 mm0 mm 19.5 °C 19.4 °C 18.9 °C 18.4 °C 13060 m 0   0 min 0 W/m² 1024.8 hPa
05:00 12.8 °C 12.5 °C 98 % 3 km/h (4 km/h) 0 mm0 mm 19.4 °C 19.4 °C 19 °C 18.4 °C 6860 m 0   0 min 0 W/m² 1024.7 hPa 8 Octas
04:54 13 °C 12.8 °C 99 % 3 km/h (4 km/h) 0 mm0 mm 19.4 °C 19.5 °C 18.9 °C 18.5 °C 6050 m 0   0 min 0 W/m² 1024.7 hPa
04:48 13.1 °C 12.9 °C 99 % 4 km/h (4 km/h) 0 mm0 mm 19.5 °C 19.4 °C 18.9 °C 18.4 °C 9700 m 0   0 min 0 W/m² 1024.6 hPa
04:42 13.2 °C 13 °C 99 % 3 km/h (4 km/h) 0 mm0 mm 19.5 °C 19.4 °C 18.9 °C 18.4 °C 9910 m 0   0 min 0 W/m² 1024.5 hPa
04:36 13.1 °C 12.9 °C 99 % 4 km/h (4 km/h) 0 mm0 mm 19.5 °C 19.4 °C 18.8 °C 18.4 °C 8490 m 0   0 min 0 W/m² 1024.5 hPa
04:30 12.8 °C 12.5 °C 98 % 4 km/h (4 km/h) 0 mm0 mm 19.5 °C 19.4 °C 18.9 °C 18.4 °C 4120 m 0   0 min 0 W/m² 1024.6 hPa
04:24 12.7 °C 12.4 °C 98 % 4 km/h (5 km/h) 0 mm0 mm 19.5 °C 19.5 °C 19 °C 18.4 °C 1900 m 0   0 min 0 W/m² 1024.6 hPa
04:18 12.3 °C 11.8 °C 97 % 4 km/h (4 km/h) 0 mm0 mm 19.5 °C 19.5 °C 19 °C 18.5 °C 980 m 0   0 min 0 W/m² 1024.7 hPa
04:12 11.9 °C 11.3 °C 96 % 4 km/h (5 km/h) 0 mm0 mm 19.5 °C 19.5 °C 19 °C 18.5 °C 1050 m 0   0 min 0 W/m² 1024.7 hPa
04:06 12 °C 11.4 °C 96 % 4 km/h (5 km/h) 0 mm0 mm 19.5 °C 19.4 °C 18.9 °C 18.4 °C 1910 m 0   0 min 0 W/m² 1024.7 hPa
04:00 12.5 °C 11.9 °C 96 % 5 km/h (6 km/h) 0 mm0 mm 19.5 °C 19.4 °C 18.9 °C 18.4 °C 11490 m 0   0 min 0 W/m² 1024.6 hPa 6 Octas
03:54 13.9 °C 13.6 °C 98 % 5 km/h (7 km/h) 0 mm0 mm 19.5 °C 19.5 °C 18.9 °C 18.5 °C 12750 m 0   0 min 0 W/m² 1024.4 hPa
03:48 13.9 °C 13.6 °C 98 % 6 km/h (8 km/h) 0 mm0 mm 19.5 °C 19.5 °C 18.9 °C 18.5 °C 2010 m 0   0 min 0 W/m² 1024.4 hPa
03:42 14 °C 13.8 °C 99 % 6 km/h (8 km/h) 0 mm0 mm 19.6 °C 19.5 °C 19 °C 18.4 °C 2080 m 0   0 min 0 W/m² 1024.4 hPa
03:36 13 °C 12.4 °C 96 % 5 km/h (6 km/h) 0 mm0 mm 19.6 °C 19.4 °C 18.9 °C 18.4 °C 1570 m 0   0 min 0 W/m² 1024.4 hPa
03:30 13.8 °C 13.3 °C 97 % 5 km/h (6 km/h) 0 mm0 mm 19.6 °C 19.5 °C 18.9 °C 18.5 °C 6050 m 0   0 min 0 W/m² 1024.5 hPa
03:24 13.9 °C 13.4 °C 97 % 5 km/h (5 km/h) 0 mm0 mm 19.6 °C 19.5 °C 19 °C 18.4 °C 13410 m 0   0 min 0 W/m² 1024.4 hPa
03:18 14 °C 13.4 °C 96 % 5 km/h (5 km/h) 0 mm0 mm 19.6 °C 19.5 °C 18.9 °C 18.5 °C 14450 m 0   0 min 0 W/m² 1024.3 hPa
03:12 14.4 °C 14.1 °C 98 % 4 km/h (5 km/h) 0 mm0 mm 19.6 °C 19.4 °C 18.9 °C 18.4 °C 16250 m 0   0 min 0 W/m² 1024.4 hPa
03:06 14.3 °C 14 °C 98 % 5 km/h (6 km/h) 0 mm0 mm 19.5 °C 19.4 °C 18.9 °C 18.4 °C 14970 m 0   0 min 0 W/m² 1024.4 hPa
03:00 14.4 °C 14.1 °C 98 % 5 km/h (6 km/h) 0 mm0 mm 19.6 °C 19.5 °C 18.7 °C 18.5 °C 12270 m 0   0 min 0 W/m² 1024.3 hPa 7 Octas
02:54 14 °C 13.7 °C 98 % 4 km/h (6 km/h) 0 mm0 mm 19.6 °C 19.5 °C 18.9 °C 18.4 °C 18240 m 0   0 min 0 W/m² 1024.4 hPa
02:48 13.9 °C 13.4 °C 97 % 4 km/h (5 km/h) 0 mm0 mm 19.6 °C 19.4 °C 18.8 °C 18.4 °C 19410 m 0   0 min 0 W/m² 1024.4 hPa
02:42 14.2 °C 13.7 °C 97 % 4 km/h (7 km/h) 0 mm0 mm 19.6 °C 19.5 °C 19.1 °C 18.5 °C 18840 m 0   0 min 0 W/m² 1024.4 hPa
02:36 14.5 °C 14.2 °C 98 % 5 km/h (7 km/h) 0 mm0 mm 19.6 °C 19.5 °C 18.9 °C 18.5 °C 17990 m 0   0 min 0 W/m² 1024.4 hPa
02:30 14.2 °C 13.7 °C 97 % 5 km/h (6 km/h) 0 mm0 mm 19.6 °C 19.4 °C 18.8 °C 18.4 °C 19270 m 0   0 min 0 W/m² 1024.3 hPa
02:24 14.6 °C 14.3 °C 98 % 5 km/h (6 km/h) 0 mm0 mm 19.6 °C 19.4 °C 18.9 °C 18.4 °C 18840 m 0   0 min 0 W/m² 1024.3 hPa
02:18 14.3 °C 13.8 °C 97 % 5 km/h (6 km/h) 0 mm0 mm 19.6 °C 19.5 °C 18.9 °C 18.4 °C 19900 m 0   0 min 0 W/m² 1024.3 hPa
02:12 14.6 °C 14.3 °C 98 % 5 km/h (6 km/h) 0 mm0 mm 19.6 °C 19.4 °C 19 °C 18.5 °C 19350 m 0   0 min 0 W/m² 1024.2 hPa
02:06 14.6 °C 14.3 °C 98 % 5 km/h (6 km/h) 0 mm0 mm 19.7 °C 19.5 °C 19 °C 18.5 °C 18420 m 0   0 min 0 W/m² 1024.2 hPa
02:00 14.2 °C 13.9 °C 98 % 5 km/h (6 km/h) 0 mm0 mm 19.6 °C 19.4 °C 18.9 °C 18.4 °C 19340 m 0   0 min 0 W/m² 1024.1 hPa 8 Octas
01:54 14.5 °C 14.2 °C 98 % 5 km/h (6 km/h) 0 mm0 mm 19.6 °C 19.5 °C 18.9 °C 18.5 °C 18870 m 0   0 min 0 W/m² 1024.2 hPa
01:48 14.7 °C 14.4 °C 98 % 6 km/h (7 km/h) 0 mm0 mm 19.7 °C 19.4 °C 19 °C 18.4 °C 16750 m 0   0 min 0 W/m² 1024 hPa
01:42 14.6 °C 14.3 °C 98 % 5 km/h (6 km/h) 0 mm0 mm 19.6 °C 19.5 °C 18.9 °C 18.5 °C 13880 m 0   0 min 0 W/m² 1024 hPa
01:36 14.5 °C 14.2 °C 98 % 5 km/h (6 km/h) 0 mm0 mm 19.7 °C 19.5 °C 19 °C 18.5 °C 13600 m 0   0 min 0 W/m² 1024 hPa
01:30 14.4 °C 14.1 °C 98 % 4 km/h (6 km/h) 0 mm0 mm 19.6 °C 19.4 °C 18.9 °C 18.4 °C 17050 m 0   0 min 0 W/m² 1023.9 hPa
01:24 14.6 °C 14.3 °C 98 % 4 km/h (4 km/h) 0 mm0 mm 19.6 °C 19.5 °C 19 °C 18.4 °C 18700 m 0   0 min 0 W/m² 1023.9 hPa
01:18 14.6 °C 14.3 °C 98 % 4 km/h (5 km/h) 0 mm0 mm 19.7 °C 19.4 °C 18.9 °C 18.4 °C 18140 m 0   0 min 0 W/m² 1023.9 hPa
01:12 14.5 °C 14.2 °C 98 % 4 km/h (5 km/h) 0 mm0 mm 19.7 °C 19.4 °C 18.8 °C 18.4 °C 13220 m 0   0 min 0 W/m² 1024 hPa
01:06 14.3 °C 13.8 °C 97 % 4 km/h (5 km/h) 0 mm0 mm 19.7 °C 19.4 °C 18.9 °C 18.4 °C 7440 m 0   0 min 0 W/m² 1024 hPa
01:00 14.3 °C 13.7 °C 96 % 4 km/h (4 km/h) 0 mm0 mm 19.7 °C 19.5 °C 19 °C 18.5 °C 7540 m 0   0 min 0 W/m² 1023.9 hPa 8 Octas
00:54 14.5 °C 13.9 °C 96 % 4 km/h (4 km/h) 0 mm0 mm 19.7 °C 19.5 °C 19 °C 18.5 °C 8760 m 0   0 min 0 W/m² 1023.9 hPa
00:48 14.9 °C 14.3 °C 96 % 4 km/h (4 km/h) 0 mm0 mm 19.7 °C 19.4 °C 18.9 °C 18.5 °C 10120 m 0   0 min 0 W/m² 1023.7 hPa
00:42 14.6 °C 13.8 °C 95 % 3 km/h (4 km/h) 0 mm0 mm 19.7 °C 19.4 °C 19 °C 18.4 °C 18000 m 0   0 min 0 W/m² 1023.8 hPa
00:36 14.7 °C 13.9 °C 95 % 3 km/h (4 km/h) 0 mm0 mm 19.6 °C 19.4 °C 18.9 °C 18.4 °C 15640 m 0   0 min 0 W/m² 1023.7 hPa
00:30 15.1 °C 14.3 °C 95 % 4 km/h (5 km/h) 0 mm0 mm 19.7 °C 19.4 °C 18.9 °C 18.4 °C 15580 m 0   0 min 0 W/m² 1023.8 hPa
00:24 15.2 °C 14.6 °C 96 % 4 km/h (5 km/h) 0 mm0 mm 19.7 °C 19.5 °C 18.9 °C 18.5 °C 18420 m 0   0 min 0 W/m² 1023.7 hPa
00:18 15.3 °C 14.7 °C 96 % 4 km/h (5 km/h) 0 mm0 mm 19.7 °C 19.4 °C 19 °C 18.4 °C 17900 m 0   0 min 0 W/m² 1023.7 hPa
00:12 15.3 °C 14.5 °C 95 % 4 km/h (5 km/h) 0 mm0 mm 19.7 °C 19.4 °C 18.8 °C 18.4 °C 18700 m 0   0 min 0 W/m² 1023.8 hPa
00:06 15.4 °C 14.6 °C 95 % 4 km/h (5 km/h) 0 mm0 mm 19.7 °C 19.4 °C 18.9 °C 18.4 °C 19240 m 0   0 min 0 W/m² 1023.7 hPa
00:00 15.4 °C 14.6 °C 95 % 4 km/h (6 km/h) 0 mm0 mm 19.7 °C 19.4 °C 18.9 °C 18.4 °C 19730 m 0   0 min 0 W/m² 1023.8 hPa 8 Octas

Données via Météo-France

Relevés météo à Brest-Guipavas

Cette page rassemble les observations de la station de Brest-Guipavas : température, humidité, vent, précipitations et pression atmosphérique. Les graphiques facilitent le suivi de la journée, tandis que le tableau donne accès aux mesures horaires et infra-horaires disponibles.

Pour replacer ces mesures dans leur contexte, consultez la climatologie de Brest-Guipavas ainsi que ses normales et records. Retrouvez aussi la carte des observations météo en temps réel.